KMGY/MGY METAR and TAF weather

Enter ICAO airport designator
Station Type Date Time Source
KMGY METAR 2019/08/22 09:53 UTC NOAA

KMGY 220953Z AUTO 22003KT 10SM -RA BKN110 22/20 A2998 RMK AO2 RAB50 SLP144 P0000 T02220200


Station Type Date Time Source
KMGY Decoded METAR 2019/08/22 09:53 UTC NOAA

Station name not available
Aug 22, 2019 - 05:53 AM EDT / 2019.08.22 0953 UTC
Wind: from the SW (220 degrees) at 3 MPH (3 KT):0
Visibility: 10 mile(s):0
Sky conditions: mostly cloudy
Weather: light rain
Precipitation last hour: A trace
Temperature: 72.0 F (22.2 C)
Dew Point: 68.0 F (20.0 C)
Relative Humidity: 87%
Pressure (altimeter): 29.98 in. Hg (1015 hPa)
ob: KMGY 220953Z AUTO 22003KT 10SM -RA BKN110 22/20 A2998 RMK AO2 RAB50 SLP144 P0000 T02220200
cycle: 10

Station Type Date Time Source
KMGY TAF UTC NOAA

Error!

Example: see airport list